sensor_id;sensor_type;location;lat;lon;timestamp;pressure;altitude;pressure_sealevel;temperature;humidity
74403;BME280;62837;51.082;13.744;2022-12-01T00:00:55;101410.48;;;2.60;73.74
74403;BME280;62837;51.082;13.744;2022-12-01T00:03:28;101412.91;;;2.59;73.45
74403;BME280;62837;51.082;13.744;2022-12-01T00:06:03;101416.02;;;2.57;73.66
74403;BME280;62837;51.082;13.744;2022-12-01T00:08:34;101413.58;;;2.56;73.95
74403;BME280;62837;51.082;13.744;2022-12-01T00:11:07;101416.27;;;2.55;73.97
74403;BME280;62837;51.082;13.744;2022-12-01T00:13:38;101410.98;;;2.52;73.57
74403;BME280;62837;51.082;13.744;2022-12-01T00:16:13;101409.04;;;2.52;73.62
74403;BME280;62837;51.082;13.744;2022-12-01T00:18:47;101412.94;;;2.51;73.72
74403;BME280;62837;51.082;13.744;2022-12-01T00:21:20;101410.09;;;2.52;73.92
74403;BME280;62837;51.082;13.744;2022-12-01T00:23:53;101408.10;;;2.54;74.07
74403;BME280;62837;51.082;13.744;2022-12-01T00:26:24;101404.50;;;2.52;73.55
74403;BME280;62837;51.082;13.744;2022-12-01T00:28:57;101410.98;;;2.51;73.48
74403;BME280;62837;51.082;13.744;2022-12-01T00:31:28;101409.93;;;2.51;73.51
74403;BME280;62837;51.082;13.744;2022-12-01T00:34:00;101408.14;;;2.51;73.92
74403;BME280;62837;51.082;13.744;2022-12-01T00:36:38;101409.10;;;2.49;74.14
74403;BME280;62837;51.082;13.744;2022-12-01T00:39:09;101405.48;;;2.47;74.00
74403;BME280;62837;51.082;13.744;2022-12-01T00:41:40;101404.06;;;2.47;74.10
74403;BME280;62837;51.082;13.744;2022-12-01T00:44:11;101403.69;;;2.50;74.48
74403;BME280;62837;51.082;13.744;2022-12-01T00:46:42;101402.60;;;2.53;73.93
74403;BME280;62837;51.082;13.744;2022-12-01T00:49:14;101400.88;;;2.49;73.96
74403;BME280;62837;51.082;13.744;2022-12-01T00:51:44;101398.40;;;2.41;74.16
74403;BME280;62837;51.082;13.744;2022-12-01T00:54:15;101398.32;;;2.39;73.86
74403;BME280;62837;51.082;13.744;2022-12-01T00:56:46;101399.05;;;2.38;74.10
74403;BME280;62837;51.082;13.744;2022-12-01T00:59:17;101401.40;;;2.34;74.31
74403;BME280;62837;51.082;13.744;2022-12-01T01:01:47;101405.33;;;2.30;74.38
74403;BME280;62837;51.082;13.744;2022-12-01T01:04:19;101406.77;;;2.24;74.55
74403;BME280;62837;51.082;13.744;2022-12-01T01:06:50;101408.00;;;2.23;74.42
74403;BME280;62837;51.082;13.744;2022-12-01T01:09:21;101410.55;;;2.15;74.30
74403;BME280;62837;51.082;13.744;2022-12-01T01:11:51;101408.19;;;2.09;74.83
74403;BME280;62837;51.082;13.744;2022-12-01T01:14:22;101412.64;;;2.04;75.17
74403;BME280;62837;51.082;13.744;2022-12-01T01:16:53;101415.23;;;2.04;74.86
74403;BME280;62837;51.082;13.744;2022-12-01T01:19:24;101410.20;;;2.03;75.06
74403;BME280;62837;51.082;13.744;2022-12-01T01:21:55;101412.52;;;2.05;75.15
74403;BME280;62837;51.082;13.744;2022-12-01T01:24:26;101408.61;;;2.07;75.11
74403;BME280;62837;51.082;13.744;2022-12-01T01:26:56;101409.46;;;2.10;75.15
74403;BME280;62837;51.082;13.744;2022-12-01T01:29:27;101408.73;;;2.15;75.02
74403;BME280;62837;51.082;13.744;2022-12-01T01:31:58;101411.48;;;2.20;74.83
74403;BME280;62837;51.082;13.744;2022-12-01T01:34:28;101411.35;;;2.24;74.74
74403;BME280;62837;51.082;13.744;2022-12-01T01:36:59;101411.94;;;2.22;74.81
74403;BME280;62837;51.082;13.744;2022-12-01T01:39:30;101409.29;;;2.23;74.76
74403;BME280;62837;51.082;13.744;2022-12-01T01:42:01;101413.80;;;2.23;74.85
74403;BME280;62837;51.082;13.744;2022-12-01T01:44:50;101417.74;;;2.26;74.73
74403;BME280;62837;51.082;13.744;2022-12-01T01:47:25;101420.64;;;2.29;74.87
74403;BME280;62837;51.082;13.744;2022-12-01T01:49:59;101419.88;;;2.27;74.72
74403;BME280;62837;51.082;13.744;2022-12-01T01:52:35;101421.34;;;2.27;74.87
74403;BME280;62837;51.082;13.744;2022-12-01T01:55:08;101421.91;;;2.28;74.61
74403;BME280;62837;51.082;13.744;2022-12-01T01:57:41;101416.39;;;2.30;74.67
74403;BME280;62837;51.082;13.744;2022-12-01T02:00:16;101415.46;;;2.32;74.38
74403;BME280;62837;51.082;13.744;2022-12-01T02:02:48;101408.59;;;2.30;74.62
74403;BME280;62837;51.082;13.744;2022-12-01T02:05:22;101408.63;;;2.25;74.47
74403;BME280;62837;51.082;13.744;2022-12-01T02:07:54;101414.20;;;2.24;74.55
74403;BME280;62837;51.082;13.744;2022-12-01T02:10:36;101416.59;;;2.21;74.76
74403;BME280;62837;51.082;13.744;2022-12-01T02:13:17;101414.89;;;2.21;74.95
74403;BME280;62837;51.082;13.744;2022-12-01T02:15:58;101415.27;;;2.24;75.11
74403;BME280;62837;51.082;13.744;2022-12-01T02:18:40;101412.01;;;2.27;74.36
74403;BME280;62837;51.082;13.744;2022-12-01T02:21:24;101411.64;;;2.28;74.47
74403;BME280;62837;51.082;13.744;2022-12-01T02:26:58;101411.86;;;2.30;74.49
74403;BME280;62837;51.082;13.744;2022-12-01T02:30:08;101414.60;;;2.28;74.53
74403;BME280;62837;51.082;13.744;2022-12-01T02:32:47;101409.25;;;2.18;75.01
74403;BME280;62837;51.082;13.744;2022-12-01T02:35:26;101414.75;;;2.18;75.61
74403;BME280;62837;51.082;13.744;2022-12-01T02:38:08;101412.73;;;2.20;75.48
74403;BME280;62837;51.082;13.744;2022-12-01T02:40:45;101411.34;;;2.21;75.32
74403;BME280;62837;51.082;13.744;2022-12-01T02:43:21;101414.38;;;2.23;75.06
74403;BME280;62837;51.082;13.744;2022-12-01T02:45:56;101412.99;;;2.24;74.87
74403;BME280;62837;51.082;13.744;2022-12-01T02:48:30;101417.03;;;2.25;74.69
74403;BME280;62837;51.082;13.744;2022-12-01T02:51:05;101424.15;;;2.26;75.25
74403;BME280;62837;51.082;13.744;2022-12-01T02:53:37;101425.30;;;2.25;74.90
74403;BME280;62837;51.082;13.744;2022-12-01T02:56:11;101430.70;;;2.25;75.11
74403;BME280;62837;51.082;13.744;2022-12-01T02:58:44;101429.52;;;2.28;74.79
74403;BME280;62837;51.082;13.744;2022-12-01T03:01:26;101426.30;;;2.29;75.15
74403;BME280;62837;51.082;13.744;2022-12-01T03:04:00;101420.55;;;2.27;75.06
74403;BME280;62837;51.082;13.744;2022-12-01T03:06:42;101418.08;;;2.16;75.14
74403;BME280;62837;51.082;13.744;2022-12-01T03:09:36;101414.35;;;2.04;75.34
74403;BME280;62837;51.082;13.744;2022-12-01T03:12:19;101416.28;;;2.05;75.51
74403;BME280;62837;51.082;13.744;2022-12-01T03:14:59;101415.52;;;2.08;75.95
74403;BME280;62837;51.082;13.744;2022-12-01T03:17:38;101417.02;;;2.06;75.23
74403;BME280;62837;51.082;13.744;2022-12-01T03:20:13;101410.61;;;2.07;75.67
74403;BME280;62837;51.082;13.744;2022-12-01T03:22:49;101405.05;;;2.08;75.63
74403;BME280;62837;51.082;13.744;2022-12-01T03:25:24;101404.71;;;2.08;76.12
74403;BME280;62837;51.082;13.744;2022-12-01T03:27:57;101410.85;;;2.06;75.78
74403;BME280;62837;51.082;13.744;2022-12-01T03:30:51;101409.39;;;2.06;75.78
74403;BME280;62837;51.082;13.744;2022-12-01T03:33:25;101412.80;;;2.02;75.75
74403;BME280;62837;51.082;13.744;2022-12-01T03:36:02;101414.81;;;2.02;75.76
74403;BME280;62837;51.082;13.744;2022-12-01T03:38:35;101413.67;;;2.01;75.64
74403;BME280;62837;51.082;13.744;2022-12-01T03:41:08;101416.71;;;2.03;76.10
74403;BME280;62837;51.082;13.744;2022-12-01T03:43:45;101420.83;;;2.04;76.23
74403;BME280;62837;51.082;13.744;2022-12-01T03:46:28;101418.60;;;2.10;75.87
74403;BME280;62837;51.082;13.744;2022-12-01T03:49:02;101416.07;;;2.11;75.98
74403;BME280;62837;51.082;13.744;2022-12-01T03:51:38;101416.40;;;2.08;75.77
74403;BME280;62837;51.082;13.744;2022-12-01T03:54:15;101417.51;;;2.10;75.83
74403;BME280;62837;51.082;13.744;2022-12-01T03:56:52;101417.77;;;2.10;76.08
74403;BME280;62837;51.082;13.744;2022-12-01T03:59:26;101420.42;;;2.11;75.85
74403;BME280;62837;51.082;13.744;2022-12-01T04:01:58;101422.15;;;2.12;75.88
74403;BME280;62837;51.082;13.744;2022-12-01T04:04:28;101424.66;;;2.10;76.09
74403;BME280;62837;51.082;13.744;2022-12-01T04:06:59;101425.20;;;2.12;76.10
74403;BME280;62837;51.082;13.744;2022-12-01T04:09:30;101429.15;;;2.09;75.93
74403;BME280;62837;51.082;13.744;2022-12-01T04:12:01;101427.84;;;2.05;76.21
74403;BME280;62837;51.082;13.744;2022-12-01T04:14:49;101433.63;;;2.00;76.29
74403;BME280;62837;51.082;13.744;2022-12-01T04:17:20;101432.54;;;1.97;76.04
74403;BME280;62837;51.082;13.744;2022-12-01T04:19:51;101429.24;;;1.98;75.90
74403;BME280;62837;51.082;13.744;2022-12-01T04:22:23;101432.55;;;2.00;75.74
74403;BME280;62837;51.082;13.744;2022-12-01T04:24:54;101428.42;;;1.98;75.58
74403;BME280;62837;51.082;13.744;2022-12-01T04:27:26;101428.04;;;1.94;75.61
74403;BME280;62837;51.082;13.744;2022-12-01T04:29:57;101429.63;;;1.90;75.73
74403;BME280;62837;51.082;13.744;2022-12-01T04:32:28;101429.45;;;1.84;75.94
74403;BME280;62837;51.082;13.744;2022-12-01T04:34:58;101433.86;;;1.83;76.45
74403;BME280;62837;51.082;13.744;2022-12-01T04:37:29;101425.91;;;1.80;76.13
74403;BME280;62837;51.082;13.744;2022-12-01T04:40:00;101429.59;;;1.84;76.00
74403;BME280;62837;51.082;13.744;2022-12-01T04:42:31;101434.59;;;1.81;76.37
74403;BME280;62837;51.082;13.744;2022-12-01T04:45:03;101432.98;;;1.77;76.47
74403;BME280;62837;51.082;13.744;2022-12-01T04:47:34;101432.70;;;1.76;76.26
74403;BME280;62837;51.082;13.744;2022-12-01T04:50:07;101433.58;;;1.79;76.39
74403;BME280;62837;51.082;13.744;2022-12-01T04:52:38;101431.80;;;1.82;76.13
74403;BME280;62837;51.082;13.744;2022-12-01T04:55:10;101436.88;;;1.82;76.02
74403;BME280;62837;51.082;13.744;2022-12-01T04:57:44;101435.84;;;1.83;76.25
74403;BME280;62837;51.082;13.744;2022-12-01T05:00:16;101435.81;;;1.85;76.47
74403;BME280;62837;51.082;13.744;2022-12-01T05:02:47;101438.66;;;1.85;76.16
74403;BME280;62837;51.082;13.744;2022-12-01T05:05:18;101437.03;;;1.85;76.19
74403;BME280;62837;51.082;13.744;2022-12-01T05:07:49;101437.34;;;1.87;76.00
74403;BME280;62837;51.082;13.744;2022-12-01T05:10:20;101437.10;;;1.88;75.99
74403;BME280;62837;51.082;13.744;2022-12-01T05:12:51;101436.91;;;1.89;76.02
74403;BME280;62837;51.082;13.744;2022-12-01T05:15:24;101435.34;;;1.92;76.23
74403;BME280;62837;51.082;13.744;2022-12-01T05:17:55;101435.48;;;1.94;76.14
74403;BME280;62837;51.082;13.744;2022-12-01T05:20:26;101437.70;;;1.95;76.17
74403;BME280;62837;51.082;13.744;2022-12-01T05:23:15;101443.17;;;1.93;76.07
74403;BME280;62837;51.082;13.744;2022-12-01T05:25:46;101441.84;;;1.89;76.80
74403;BME280;62837;51.082;13.744;2022-12-01T05:28:18;101444.43;;;1.98;76.51
74403;BME280;62837;51.082;13.744;2022-12-01T05:30:50;101439.30;;;2.01;76.23
74403;BME280;62837;51.082;13.744;2022-12-01T05:33:22;101440.18;;;2.04;76.36
74403;BME280;62837;51.082;13.744;2022-12-01T05:35:54;101438.89;;;2.03;75.88
74403;BME280;62837;51.082;13.744;2022-12-01T05:38:25;101437.56;;;2.04;76.01
74403;BME280;62837;51.082;13.744;2022-12-01T05:40:56;101441.23;;;2.08;76.55
74403;BME280;62837;51.082;13.744;2022-12-01T05:43:27;101439.31;;;2.09;76.33
74403;BME280;62837;51.082;13.744;2022-12-01T05:45:59;101442.62;;;2.07;76.69
74403;BME280;62837;51.082;13.744;2022-12-01T05:48:30;101440.06;;;2.08;76.28
74403;BME280;62837;51.082;13.744;2022-12-01T05:51:08;101443.54;;;2.10;76.23
74403;BME280;62837;51.082;13.744;2022-12-01T05:53:39;101445.73;;;2.08;76.12
74403;BME280;62837;51.082;13.744;2022-12-01T05:56:10;101449.98;;;2.04;76.53
74403;BME280;62837;51.082;13.744;2022-12-01T05:58:42;101447.95;;;2.04;76.51
74403;BME280;62837;51.082;13.744;2022-12-01T06:01:13;101451.77;;;2.07;76.34
74403;BME280;62837;51.082;13.744;2022-12-01T06:03:44;101449.09;;;2.03;76.02
74403;BME280;62837;51.082;13.744;2022-12-01T06:06:15;101456.11;;;2.01;76.65
74403;BME280;62837;51.082;13.744;2022-12-01T06:08:47;101457.36;;;2.01;76.45
74403;BME280;62837;51.082;13.744;2022-12-01T06:11:18;101460.59;;;2.02;76.31
74403;BME280;62837;51.082;13.744;2022-12-01T06:13:49;101460.66;;;2.01;75.93
74403;BME280;62837;51.082;13.744;2022-12-01T06:16:20;101466.23;;;1.98;76.34
74403;BME280;62837;51.082;13.744;2022-12-01T06:18:51;101465.15;;;1.98;76.48
74403;BME280;62837;51.082;13.744;2022-12-01T06:21:22;101467.77;;;2.00;77.16
74403;BME280;62837;51.082;13.744;2022-12-01T06:23:53;101470.82;;;2.04;77.12
74403;BME280;62837;51.082;13.744;2022-12-01T06:26:24;101462.11;;;2.06;77.05
74403;BME280;62837;51.082;13.744;2022-12-01T06:28:56;101460.28;;;2.07;76.49
74403;BME280;62837;51.082;13.744;2022-12-01T06:31:27;101463.61;;;2.08;77.33
74403;BME280;62837;51.082;13.744;2022-12-01T06:33:58;101468.39;;;2.06;77.39
74403;BME280;62837;51.082;13.744;2022-12-01T06:36:29;101472.20;;;1.95;76.61
74403;BME280;62837;51.082;13.744;2022-12-01T06:39:00;101476.09;;;1.85;77.51
74403;BME280;62837;51.082;13.744;2022-12-01T06:41:31;101476.11;;;1.80;77.22
74403;BME280;62837;51.082;13.744;2022-12-01T06:44:03;101474.54;;;1.78;77.28
74403;BME280;62837;51.082;13.744;2022-12-01T06:46:34;101476.04;;;1.81;77.61
74403;BME280;62837;51.082;13.744;2022-12-01T06:49:05;101480.45;;;1.85;77.15
74403;BME280;62837;51.082;13.744;2022-12-01T06:51:36;101482.18;;;1.87;77.82
74403;BME280;62837;51.082;13.744;2022-12-01T06:54:09;101482.39;;;1.92;77.00
74403;BME280;62837;51.082;13.744;2022-12-01T06:56:40;101482.38;;;1.95;77.38
74403;BME280;62837;51.082;13.744;2022-12-01T06:59:12;101483.55;;;1.91;76.87
74403;BME280;62837;51.082;13.744;2022-12-01T07:01:43;101483.98;;;1.84;76.83
74403;BME280;62837;51.082;13.744;2022-12-01T07:04:15;101486.48;;;1.80;77.54
74403;BME280;62837;51.082;13.744;2022-12-01T07:06:46;101485.96;;;1.83;77.63
74403;BME280;62837;51.082;13.744;2022-12-01T07:09:17;101492.73;;;1.85;77.41
74403;BME280;62837;51.082;13.744;2022-12-01T07:11:48;101494.03;;;1.91;76.92
74403;BME280;62837;51.082;13.744;2022-12-01T07:14:22;101494.88;;;1.98;78.53
74403;BME280;62837;51.082;13.744;2022-12-01T07:16:55;101497.94;;;2.74;88.70
74403;BME280;62837;51.082;13.744;2022-12-01T07:19:26;101495.17;;;3.56;86.09
74403;BME280;62837;51.082;13.744;2022-12-01T07:21:57;101497.63;;;3.74;80.30
74403;BME280;62837;51.082;13.744;2022-12-01T07:24:28;101496.84;;;3.69;77.70
74403;BME280;62837;51.082;13.744;2022-12-01T07:26:59;101501.58;;;3.58;76.68
74403;BME280;62837;51.082;13.744;2022-12-01T07:29:30;101501.30;;;3.49;75.97
74403;BME280;62837;51.082;13.744;2022-12-01T07:32:01;101502.54;;;3.34;74.36
74403;BME280;62837;51.082;13.744;2022-12-01T07:34:32;101501.06;;;3.18;74.59
74403;BME280;62837;51.082;13.744;2022-12-01T07:37:03;101503.29;;;3.09;74.51
74403;BME280;62837;51.082;13.744;2022-12-01T07:39:35;101503.81;;;2.94;74.05
74403;BME280;62837;51.082;13.744;2022-12-01T07:42:06;101504.11;;;2.82;74.73
74403;BME280;62837;51.082;13.744;2022-12-01T07:44:37;101503.11;;;2.75;74.38
74403;BME280;62837;51.082;13.744;2022-12-01T07:47:08;101506.42;;;2.70;74.63
74403;BME280;62837;51.082;13.744;2022-12-01T07:49:39;101505.27;;;2.68;74.26
74403;BME280;62837;51.082;13.744;2022-12-01T07:52:10;101500.59;;;2.68;75.06
74403;BME280;62837;51.082;13.744;2022-12-01T07:54:41;101505.08;;;2.71;75.15
74403;BME280;62837;51.082;13.744;2022-12-01T07:57:12;101510.22;;;2.69;74.92
74403;BME280;62837;51.082;13.744;2022-12-01T07:59:44;101512.59;;;2.60;74.52
74403;BME280;62837;51.082;13.744;2022-12-01T08:02:15;101515.93;;;2.53;74.60
74403;BME280;62837;51.082;13.744;2022-12-01T08:04:46;101516.44;;;2.41;74.44
74403;BME280;62837;51.082;13.744;2022-12-01T08:07:17;101516.52;;;2.33;74.44
74403;BME280;62837;51.082;13.744;2022-12-01T08:09:48;101515.98;;;2.31;74.79
74403;BME280;62837;51.082;13.744;2022-12-01T08:12:20;101512.96;;;2.30;74.96
74403;BME280;62837;51.082;13.744;2022-12-01T08:14:51;101509.84;;;2.31;75.09
74403;BME280;62837;51.082;13.744;2022-12-01T08:17:22;101514.81;;;2.27;74.69
74403;BME280;62837;51.082;13.744;2022-12-01T08:19:53;101514.52;;;2.26;74.74
74403;BME280;62837;51.082;13.744;2022-12-01T08:22:24;101516.17;;;2.28;75.17
74403;BME280;62837;51.082;13.744;2022-12-01T08:24:55;101513.81;;;2.28;74.85
74403;BME280;62837;51.082;13.744;2022-12-01T08:27:26;101516.59;;;2.30;74.87
74403;BME280;62837;51.082;13.744;2022-12-01T08:29:57;101518.53;;;2.32;75.37
74403;BME280;62837;51.082;13.744;2022-12-01T08:32:28;101513.91;;;2.32;74.95
74403;BME280;62837;51.082;13.744;2022-12-01T08:34:59;101516.55;;;2.34;74.97
74403;BME280;62837;51.082;13.744;2022-12-01T08:37:30;101517.85;;;2.36;74.63
74403;BME280;62837;51.082;13.744;2022-12-01T08:40:01;101514.64;;;2.39;75.04
74403;BME280;62837;51.082;13.744;2022-12-01T08:42:32;101521.98;;;2.37;74.70
74403;BME280;62837;51.082;13.744;2022-12-01T08:45:05;101518.97;;;2.32;74.95
74403;BME280;62837;51.082;13.744;2022-12-01T08:47:36;101518.89;;;2.26;74.52
74403;BME280;62837;51.082;13.744;2022-12-01T08:50:08;101519.15;;;2.21;75.06
74403;BME280;62837;51.082;13.744;2022-12-01T08:52:40;101519.91;;;2.14;74.95
74403;BME280;62837;51.082;13.744;2022-12-01T08:55:12;101519.61;;;2.12;74.97
74403;BME280;62837;51.082;13.744;2022-12-01T08:57:43;101521.39;;;2.14;75.36
74403;BME280;62837;51.082;13.744;2022-12-01T09:00:15;101520.42;;;2.19;75.36
74403;BME280;62837;51.082;13.744;2022-12-01T09:02:46;101520.37;;;2.23;75.26
74403;BME280;62837;51.082;13.744;2022-12-01T09:05:17;101526.65;;;2.28;74.85
74403;BME280;62837;51.082;13.744;2022-12-01T09:07:48;101523.98;;;2.31;75.16
74403;BME280;62837;51.082;13.744;2022-12-01T09:10:40;101527.89;;;2.33;74.93
74403;BME280;62837;51.082;13.744;2022-12-01T09:13:11;101528.77;;;2.36;74.78
74403;BME280;62837;51.082;13.744;2022-12-01T09:15:42;101527.75;;;2.37;74.66
74403;BME280;62837;51.082;13.744;2022-12-01T09:18:13;101530.54;;;2.36;75.35
74403;BME280;62837;51.082;13.744;2022-12-01T09:20:44;101530.41;;;2.37;74.98
74403;BME280;62837;51.082;13.744;2022-12-01T09:23:15;101530.64;;;2.39;75.02
74403;BME280;62837;51.082;13.744;2022-12-01T09:25:46;101530.21;;;2.42;75.13
74403;BME280;62837;51.082;13.744;2022-12-01T09:28:19;101528.63;;;2.45;74.97
74403;BME280;62837;51.082;13.744;2022-12-01T09:30:50;101528.66;;;2.48;74.73
74403;BME280;62837;51.082;13.744;2022-12-01T09:33:21;101522.38;;;2.47;74.65
74403;BME280;62837;51.082;13.744;2022-12-01T09:35:52;101517.64;;;2.45;74.40
74403;BME280;62837;51.082;13.744;2022-12-01T09:38:29;101517.77;;;2.40;74.52
74403;BME280;62837;51.082;13.744;2022-12-01T09:41:03;101517.02;;;2.34;74.42
74403;BME280;62837;51.082;13.744;2022-12-01T09:43:40;101521.14;;;2.32;74.97
74403;BME280;62837;51.082;13.744;2022-12-01T09:46:17;101518.66;;;2.36;74.80
74403;BME280;62837;51.082;13.744;2022-12-01T09:48:51;101516.01;;;2.38;74.82
74403;BME280;62837;51.082;13.744;2022-12-01T09:51:25;101513.83;;;2.42;74.95
74403;BME280;62837;51.082;13.744;2022-12-01T09:53:59;101516.05;;;2.44;74.58
74403;BME280;62837;51.082;13.744;2022-12-01T09:56:33;101515.15;;;2.45;74.61
74403;BME280;62837;51.082;13.744;2022-12-01T09:59:14;101510.98;;;2.46;74.55
74403;BME280;62837;51.082;13.744;2022-12-01T10:01:52;101513.40;;;2.44;74.50
74403;BME280;62837;51.082;13.744;2022-12-01T10:04:27;101513.20;;;2.38;74.95
74403;BME280;62837;51.082;13.744;2022-12-01T10:07:02;101508.56;;;2.36;74.84
74403;BME280;62837;51.082;13.744;2022-12-01T10:09:39;101509.80;;;2.39;74.77
74403;BME280;62837;51.082;13.744;2022-12-01T10:12:14;101505.29;;;2.45;74.55
74403;BME280;62837;51.082;13.744;2022-12-01T10:14:47;101503.83;;;2.49;74.60
74403;BME280;62837;51.082;13.744;2022-12-01T10:17:29;101503.16;;;2.54;74.47
74403;BME280;62837;51.082;13.744;2022-12-01T10:20:05;101498.79;;;2.58;74.21
74403;BME280;62837;51.082;13.744;2022-12-01T10:23:03;101499.78;;;2.62;74.14
74403;BME280;62837;51.082;13.744;2022-12-01T10:25:43;101494.42;;;2.65;74.10
74403;BME280;62837;51.082;13.744;2022-12-01T10:28:34;101495.06;;;2.67;74.18
74403;BME280;62837;51.082;13.744;2022-12-01T10:31:16;101491.63;;;2.69;73.75
74403;BME280;62837;51.082;13.744;2022-12-01T10:33:58;101494.45;;;2.68;74.06
74403;BME280;62837;51.082;13.744;2022-12-01T10:36:30;101492.31;;;2.66;73.79
74403;BME280;62837;51.082;13.744;2022-12-01T10:39:04;101491.55;;;2.65;73.84
74403;BME280;62837;51.082;13.744;2022-12-01T10:41:37;101490.17;;;2.62;73.85
74403;BME280;62837;51.082;13.744;2022-12-01T10:44:09;101485.76;;;2.63;74.00
74403;BME280;62837;51.082;13.744;2022-12-01T10:46:45;101485.16;;;2.65;73.64
74403;BME280;62837;51.082;13.744;2022-12-01T10:49:18;101486.10;;;2.66;73.56
74403;BME280;62837;51.082;13.744;2022-12-01T10:51:53;101479.35;;;2.67;73.72
74403;BME280;62837;51.082;13.744;2022-12-01T10:54:33;101481.21;;;2.66;73.48
74403;BME280;62837;51.082;13.744;2022-12-01T10:57:06;101483.19;;;2.66;74.19
74403;BME280;62837;51.082;13.744;2022-12-01T10:59:50;101481.69;;;2.65;73.64
74403;BME280;62837;51.082;13.744;2022-12-01T11:02:26;101480.25;;;2.64;73.32
74403;BME280;62837;51.082;13.744;2022-12-01T11:05:00;101478.94;;;2.58;74.08
74403;BME280;62837;51.082;13.744;2022-12-01T11:07:33;101478.50;;;2.57;73.93
74403;BME280;62837;51.082;13.744;2022-12-01T11:10:24;101480.88;;;2.58;73.98
74403;BME280;62837;51.082;13.744;2022-12-01T11:12:54;101479.08;;;2.61;73.70
74403;BME280;62837;51.082;13.744;2022-12-01T11:15:29;101481.32;;;2.61;73.58
74403;BME280;62837;51.082;13.744;2022-12-01T11:18:04;101479.11;;;2.58;74.12
74403;BME280;62837;51.082;13.744;2022-12-01T11:20:36;101479.07;;;2.58;73.93
74403;BME280;62837;51.082;13.744;2022-12-01T11:23:26;101475.95;;;2.59;74.32
74403;BME280;62837;51.082;13.744;2022-12-01T11:26:00;101478.28;;;2.64;74.23
74403;BME280;62837;51.082;13.744;2022-12-01T11:28:34;101470.90;;;2.66;73.92
74403;BME280;62837;51.082;13.744;2022-12-01T11:31:07;101471.41;;;2.70;73.48
74403;BME280;62837;51.082;13.744;2022-12-01T11:33:47;101465.73;;;2.70;73.63
74403;BME280;62837;51.082;13.744;2022-12-01T11:36:26;101460.95;;;2.71;73.42
74403;BME280;62837;51.082;13.744;2022-12-01T11:39:00;101459.86;;;2.72;73.79
74403;BME280;62837;51.082;13.744;2022-12-01T11:41:34;101459.15;;;2.75;74.03
74403;BME280;62837;51.082;13.744;2022-12-01T11:44:16;101461.38;;;2.78;73.56
74403;BME280;62837;51.082;13.744;2022-12-01T11:47:15;101456.27;;;2.79;73.65
74403;BME280;62837;51.082;13.744;2022-12-01T11:49:55;101456.45;;;2.78;73.30
74403;BME280;62837;51.082;13.744;2022-12-01T11:52:29;101455.10;;;2.68;73.40
74403;BME280;62837;51.082;13.744;2022-12-01T11:55:18;101456.06;;;2.66;74.02
74403;BME280;62837;51.082;13.744;2022-12-01T11:57:51;101456.52;;;2.68;73.98
74403;BME280;62837;51.082;13.744;2022-12-01T12:00:25;101452.36;;;2.71;73.48
74403;BME280;62837;51.082;13.744;2022-12-01T12:03:15;101451.60;;;2.69;73.73
74403;BME280;62837;51.082;13.744;2022-12-01T12:09:18;101446.64;;;2.60;73.92
74403;BME280;62837;51.082;13.744;2022-12-01T12:12:06;101442.63;;;2.57;74.14
74403;BME280;62837;51.082;13.744;2022-12-01T12:14:55;101440.25;;;2.57;73.96
74403;BME280;62837;51.082;13.744;2022-12-01T12:17:48;101438.90;;;2.54;74.26
74403;BME280;62837;51.082;13.744;2022-12-01T12:20:32;101441.54;;;2.54;74.52
74403;BME280;62837;51.082;13.744;2022-12-01T12:23:24;101443.54;;;2.54;74.29
74403;BME280;62837;51.082;13.744;2022-12-01T12:26:04;101442.50;;;2.52;74.33
74403;BME280;62837;51.082;13.744;2022-12-01T12:28:49;101443.21;;;2.51;74.81
74403;BME280;62837;51.082;13.744;2022-12-01T12:31:27;101434.35;;;2.48;74.58
74403;BME280;62837;51.082;13.744;2022-12-01T12:34:13;101437.55;;;2.53;74.78
74403;BME280;62837;51.082;13.744;2022-12-01T12:36:55;101432.32;;;2.55;74.74
74403;BME280;62837;51.082;13.744;2022-12-01T12:39:39;101433.77;;;2.57;74.56
74403;BME280;62837;51.082;13.744;2022-12-01T12:42:16;101432.92;;;2.58;74.63
74403;BME280;62837;51.082;13.744;2022-12-01T12:44:53;101432.84;;;2.54;74.46
74403;BME280;62837;51.082;13.744;2022-12-01T12:47:40;101433.86;;;2.50;74.38
74403;BME280;62837;51.082;13.744;2022-12-01T12:50:26;101433.09;;;2.43;74.60
74403;BME280;62837;51.082;13.744;2022-12-01T12:53:03;101435.92;;;2.42;75.10
74403;BME280;62837;51.082;13.744;2022-12-01T12:55:38;101437.21;;;2.40;74.87
74403;BME280;62837;51.082;13.744;2022-12-01T12:58:15;101433.47;;;2.43;74.64
74403;BME280;62837;51.082;13.744;2022-12-01T13:00:52;101433.70;;;2.49;74.78
74403;BME280;62837;51.082;13.744;2022-12-01T13:03:36;101430.14;;;2.54;74.33
74403;BME280;62837;51.082;13.744;2022-12-01T13:06:12;101432.35;;;2.60;73.87
74403;BME280;62837;51.082;13.744;2022-12-01T13:08:48;101421.23;;;2.52;73.72
74403;BME280;62837;51.082;13.744;2022-12-01T13:11:23;101434.50;;;2.54;73.96
74403;BME280;62837;51.082;13.744;2022-12-01T13:13:59;101435.38;;;2.51;74.03
74403;BME280;62837;51.082;13.744;2022-12-01T13:16:35;101431.25;;;2.45;74.08
74403;BME280;62837;51.082;13.744;2022-12-01T13:19:12;101435.91;;;2.40;74.21
74403;BME280;62837;51.082;13.744;2022-12-01T13:21:46;101434.91;;;2.40;74.31
74403;BME280;62837;51.082;13.744;2022-12-01T13:24:21;101433.80;;;2.45;74.06
74403;BME280;62837;51.082;13.744;2022-12-01T13:26:56;101430.11;;;2.48;74.04
74403;BME280;62837;51.082;13.744;2022-12-01T13:29:32;101428.48;;;2.43;73.86
74403;BME280;62837;51.082;13.744;2022-12-01T13:32:29;101433.86;;;2.37;74.06
74403;BME280;62837;51.082;13.744;2022-12-01T13:34:59;101431.60;;;2.35;73.79